Aeroporto :







RITROVATECI SU...

 
LOGIN :

Iscrizione | Disclaimer

   EN    FR    IT 

 









Sommario :    VFR   VFR Marginale   IFR   IFR Intensivo   IFR Molto Intensivo
Visibilità : 
Base nubi : 
>= 8 km
>= 3000ft
5 / 8 km
1000 / 3000 ft
1500m / 5 km
500 / 1000 ft
800 / 1500m
200 / 500 ft
< 800m
< 200 ft
Simboli :   Temporali  Nebbia  Neve Forte  Precipitazioni Forti  Vento > 20 kt






- Altitudine del aeroporto : 62 ft
- Codice IATA : ANU


TAPA - V C Bird Int.

ULTIMO METAR :
  • 251100Z 06006KT 040V100 9999 FEW020 24/20 Q1016 NOSIG

METARs OBSOLETI :
  • 251000Z 06005KT 030V100 9999 SCT018 24/20 Q1015 NOSIG
  • 250900Z 05005KT 9999 FEW018 24/20 Q1015 NOSIG

TAF TAF TAPA
Valido dal 25 a 06 ore il 26 a 06 ore UTC


250500Z 2506/2606 07005KT 9999 FEW023
PROB30
TEMPO 2513/2522 SHRA



MetMap, La meteo Aeronautica in un colpo d'occhio ! - Copyright ORBIFLY Dicembre 2007 - Disclaimer

ORBIFLY MET'MAP TEAM :

Programmazione e sviluppo : Alexandra Zaïnal
Concezione : Baudouin d'Aumeries
Aiuto per la programmazione : Marc-Olivier Méhu
Supporto tecnico e logistico : Manuel Goepfert
Aiuto per la traduzione : Arnaldo La Scala

Contatto : metmap@orbifly.com




FONTI E CREDITI :

   NOAA